createdAt,value
2023-03-29T00:02:26.097Z,65.03
2023-03-29T00:04:53.006Z,65.60
2023-03-29T00:07:19.803Z,66.00
2023-03-29T00:09:47.472Z,67.01
2023-03-29T00:12:15.975Z,67.92
2023-03-29T00:14:43.493Z,68.57
2023-03-29T00:17:10.429Z,69.05
2023-03-29T00:19:43.332Z,67.98
2023-03-29T00:22:11.063Z,67.33
2023-03-29T00:25:04.056Z,67.83
2023-03-29T00:27:57.011Z,67.30
2023-03-29T00:30:24.026Z,67.56
2023-03-29T00:32:50.895Z,67.46
2023-03-29T00:35:17.973Z,67.76
2023-03-29T00:37:46.509Z,68.19
2023-03-29T00:40:13.857Z,67.12
2023-03-29T00:43:11.098Z,64.47
2023-03-29T00:45:38.804Z,63.44
2023-03-29T00:48:15.822Z,63.71
2023-03-29T00:50:53.917Z,64.66
2023-03-29T00:53:42.787Z,65.56
2023-03-29T00:56:21.135Z,66.18
2023-03-29T00:59:00.037Z,65.97
2023-03-29T01:01:40.864Z,65.66
2023-03-29T01:04:18.295Z,66.97
2023-03-29T01:07:12.303Z,66.23
2023-03-29T01:09:43.792Z,65.61
2023-03-29T01:12:20.945Z,66.96
2023-03-29T01:15:01.024Z,66.71
2023-03-29T01:17:29.314Z,68.97
2023-03-29T01:20:12.052Z,69.07
2023-03-29T01:22:48.093Z,68.89
2023-03-29T01:25:49.015Z,69.19
2023-03-29T01:28:22.514Z,68.34
2023-03-29T01:30:56.022Z,68.71
2023-03-29T01:33:40.726Z,67.77
2023-03-29T01:36:21.189Z,69.04
2023-03-29T01:39:07.296Z,68.91
2023-03-29T01:42:06.971Z,67.97
2023-03-29T01:44:54.433Z,68.32
2023-03-29T01:47:45.314Z,68.84
2023-03-29T01:50:23.036Z,69.07
2023-03-29T01:53:20.602Z,70.42
2023-03-29T01:55:53.576Z,69.92
2023-03-29T01:58:26.226Z,70.97
2023-03-29T02:00:54.134Z,70.50
2023-03-29T02:03:26.105Z,70.62
2023-03-29T02:05:57.846Z,70.49
2023-03-29T02:08:30.218Z,70.68
2023-03-29T02:10:58.198Z,70.69
2023-03-29T02:13:25.472Z,69.85
2023-03-29T02:15:57.335Z,71.33
2023-03-29T02:18:24.865Z,71.64
2023-03-29T02:20:53.378Z,71.75
2023-03-29T02:23:48.104Z,70.61
2023-03-29T02:26:16.820Z,71.18
2023-03-29T02:28:44.049Z,71.79
2023-03-29T02:31:30.112Z,71.96
2023-03-29T02:34:12.612Z,71.46
2023-03-29T02:36:39.617Z,71.84
2023-03-29T02:39:09.369Z,72.13
2023-03-29T02:41:43.060Z,71.67
2023-03-29T02:44:18.370Z,72.48
2023-03-29T02:46:48.118Z,71.62
2023-03-29T02:49:15.730Z,71.76
2023-03-29T02:51:42.719Z,72.86
2023-03-29T02:54:24.072Z,73.41
2023-03-29T02:56:59.833Z,73.03
2023-03-29T02:59:31.036Z,72.15
2023-03-29T03:01:57.944Z,73.90
2023-03-29T03:04:25.817Z,72.94
2023-03-29T03:06:56.586Z,72.96
2023-03-29T03:09:23.548Z,73.34
2023-03-29T03:11:54.138Z,72.18
2023-03-29T03:14:21.600Z,72.43
2023-03-29T03:16:50.221Z,72.31
2023-03-29T03:19:17.483Z,72.36
2023-03-29T03:21:44.517Z,72.10
2023-03-29T03:24:11.234Z,72.43
2023-03-29T03:26:38.781Z,73.17
2023-03-29T03:29:06.813Z,73.02
2023-03-29T03:32:05.357Z,70.26
2023-03-29T03:34:51.189Z,70.16
2023-03-29T03:37:22.341Z,70.21
2023-03-29T03:39:49.661Z,70.92
2023-03-29T03:42:17.712Z,70.60
2023-03-29T03:44:46.581Z,71.64
2023-03-29T03:47:48.133Z,71.25
2023-03-29T03:50:24.973Z,71.55
2023-03-29T03:52:53.113Z,71.04
2023-03-29T03:55:21.010Z,71.26
2023-03-29T03:58:09.410Z,70.62
2023-03-29T04:00:36.649Z,70.39
2023-03-29T04:06:17.065Z,71.05
2023-03-29T04:09:04.434Z,71.52
2023-03-29T04:11:37.169Z,71.72
2023-03-29T04:14:05.061Z,71.41
2023-03-29T04:16:54.031Z,71.08
2023-03-29T04:19:44.143Z,72.03
2023-03-29T04:22:12.597Z,72.13
2023-03-29T04:24:39.474Z,72.33
2023-03-29T04:27:32.096Z,73.18
2023-03-29T04:30:05.598Z,73.03
2023-03-29T04:33:08.494Z,73.07
2023-03-29T04:35:36.982Z,73.58
2023-03-29T04:38:04.649Z,74.69
2023-03-29T04:40:31.940Z,74.50
2023-03-29T04:43:14.178Z,74.72
2023-03-29T04:45:52.628Z,73.79
2023-03-29T04:48:38.102Z,74.05
2023-03-29T04:51:05.888Z,74.83
2023-03-29T04:53:34.514Z,74.44
2023-03-29T04:56:03.309Z,74.36
2023-03-29T04:58:50.930Z,75.07
2023-03-29T05:01:20.503Z,74.59
2023-03-29T05:04:12.872Z,74.18
2023-03-29T05:06:50.147Z,73.38
2023-03-29T05:09:17.866Z,73.28
2023-03-29T05:11:52.637Z,72.37
2023-03-29T05:14:21.676Z,73.08
2023-03-29T05:16:48.496Z,73.02
2023-03-29T05:19:15.793Z,72.22
2023-03-29T05:21:46.919Z,72.98
2023-03-29T05:24:17.753Z,73.38
2023-03-29T05:26:59.097Z,72.66
2023-03-29T05:29:29.440Z,72.61
2023-03-29T05:32:12.266Z,73.25
2023-03-29T05:34:39.857Z,73.51
2023-03-29T05:37:06.908Z,72.66
2023-03-29T05:39:46.194Z,72.65
2023-03-29T05:42:13.099Z,72.90
2023-03-29T05:44:54.014Z,72.13
2023-03-29T05:47:21.493Z,73.24
2023-03-29T05:49:48.405Z,72.11
2023-03-29T05:52:20.551Z,71.49
2023-03-29T05:54:47.647Z,70.09
2023-03-29T05:57:16.173Z,70.40
2023-03-29T05:59:43.760Z,69.81
2023-03-29T06:02:12.499Z,70.79
2023-03-29T06:04:44.931Z,69.79
2023-03-29T06:07:25.169Z,69.19
2023-03-29T06:10:14.954Z,69.86
2023-03-29T06:12:47.018Z,68.87
2023-03-29T06:15:14.324Z,68.46
2023-03-29T06:17:47.425Z,69.88
2023-03-29T06:20:15.069Z,68.49
2023-03-29T06:22:45.245Z,67.58
2023-03-29T06:25:12.270Z,65.90
2023-03-29T06:27:41.708Z,65.20
2023-03-29T06:30:09.697Z,65.76
2023-03-29T06:32:37.804Z,64.30
2023-03-29T06:35:16.429Z,65.16
2023-03-29T06:37:49.239Z,66.27
2023-03-29T06:40:39.607Z,66.07
2023-03-29T06:43:07.037Z,64.99
2023-03-29T06:45:43.587Z,64.68
2023-03-29T06:48:33.181Z,63.61
2023-03-29T06:51:00.516Z,62.02
2023-03-29T06:53:29.831Z,61.67
2023-03-29T06:56:00.993Z,61.78
2023-03-29T06:58:42.365Z,61.42
2023-03-29T07:01:29.234Z,61.19
2023-03-29T07:04:02.666Z,62.42
2023-03-29T07:06:33.725Z,61.68
2023-03-29T07:09:01.849Z,61.92
2023-03-29T07:11:53.143Z,61.73
2023-03-29T07:14:24.245Z,62.14
2023-03-29T07:16:53.002Z,61.19
2023-03-29T07:19:29.104Z,62.62
2023-03-29T07:21:56.868Z,61.15
2023-03-29T07:24:34.722Z,60.97
2023-03-29T07:27:05.370Z,60.84
2023-03-29T07:29:33.778Z,61.22
2023-03-29T07:32:00.545Z,59.88
2023-03-29T07:34:45.477Z,59.92
2023-03-29T07:37:22.337Z,60.63
2023-03-29T07:39:50.447Z,59.56
2023-03-29T07:42:35.998Z,59.25
2023-03-29T07:45:07.242Z,58.74
2023-03-29T07:47:46.681Z,59.83
2023-03-29T07:50:13.817Z,58.96
2023-03-29T07:52:41.243Z,58.85
2023-03-29T07:55:12.307Z,58.40
2023-03-29T07:57:53.620Z,58.22
2023-03-29T08:00:26.251Z,56.97
2023-03-29T08:03:14.309Z,57.48
2023-03-29T08:05:42.825Z,58.17
2023-03-29T08:08:11.564Z,57.57
2023-03-29T08:10:58.334Z,56.45
2023-03-29T08:13:51.910Z,56.18
2023-03-29T08:16:42.169Z,56.86
2023-03-29T08:19:13.353Z,57.86
2023-03-29T08:22:12.006Z,55.98
2023-03-29T08:24:57.433Z,56.84
2023-03-29T08:27:29.262Z,56.65
2023-03-29T08:29:57.838Z,56.53
2023-03-29T08:32:25.250Z,56.66
2023-03-29T08:34:52.771Z,55.52
2023-03-29T08:37:25.242Z,56.32
2023-03-29T08:39:55.225Z,56.28
2023-03-29T08:42:55.401Z,57.00
2023-03-29T08:45:32.446Z,56.14
2023-03-29T08:48:07.472Z,55.51
2023-03-29T08:50:40.947Z,55.08
2023-03-29T08:53:19.085Z,54.50
2023-03-29T08:56:27.742Z,54.52
2023-03-29T08:59:22.245Z,54.00
2023-03-29T09:01:52.781Z,55.29
2023-03-29T09:04:23.965Z,55.88
2023-03-29T09:07:11.889Z,54.42
2023-03-29T09:13:10.060Z,54.18
2023-03-29T09:15:45.987Z,53.27
2023-03-29T09:18:52.254Z,53.89
2023-03-29T09:21:30.225Z,52.90
2023-03-29T09:24:10.553Z,52.75
2023-03-29T09:26:56.389Z,53.15
2023-03-29T09:29:29.767Z,53.43
2023-03-29T09:31:56.946Z,52.81
2023-03-29T09:34:32.279Z,52.02
2023-03-29T09:37:21.903Z,53.05
2023-03-29T09:40:38.353Z,52.24
2023-03-29T09:43:29.376Z,52.28
2023-03-29T09:46:02.429Z,52.96
2023-03-29T09:48:34.867Z,53.28
2023-03-29T09:51:05.378Z,53.09
2023-03-29T09:53:32.558Z,53.17
2023-03-29T09:56:31.301Z,52.55
2023-03-29T09:59:06.192Z,52.25
2023-03-29T10:01:41.495Z,52.87
2023-03-29T10:04:10.389Z,51.07
2023-03-29T10:06:49.320Z,51.80
2023-03-29T10:09:24.028Z,51.41
2023-03-29T10:11:59.308Z,51.91
2023-03-29T10:14:41.358Z,51.94
2023-03-29T10:17:22.364Z,51.46
2023-03-29T10:20:04.457Z,52.09
2023-03-29T10:22:37.234Z,52.22
2023-03-29T10:25:13.834Z,51.81
2023-03-29T10:27:43.481Z,52.45
2023-03-29T10:30:22.980Z,52.76
2023-03-29T10:32:59.314Z,51.58
2023-03-29T10:35:37.373Z,52.95
2023-03-29T10:38:10.140Z,50.57
2023-03-29T10:40:44.083Z,50.93
2023-03-29T10:43:36.141Z,51.01
2023-03-29T10:46:10.668Z,50.28
2023-03-29T10:48:37.664Z,50.02
2023-03-29T10:51:05.675Z,48.75
2023-03-29T10:53:35.463Z,49.03
2023-03-29T10:56:25.369Z,48.90
2023-03-29T10:59:10.728Z,48.48
2023-03-29T11:02:00.975Z,49.64
2023-03-29T11:04:48.790Z,50.30
2023-03-29T11:07:28.783Z,51.38
2023-03-29T11:10:26.527Z,52.03
2023-03-29T11:13:01.254Z,51.23
2023-03-29T11:15:50.145Z,52.49
2023-03-29T11:18:39.486Z,52.79
2023-03-29T11:21:44.345Z,53.76
2023-03-29T11:24:35.471Z,53.88
2023-03-29T11:27:24.547Z,54.97
2023-03-29T11:30:11.415Z,54.36
2023-03-29T11:32:55.235Z,55.36
2023-03-29T11:36:20.969Z,55.14
2023-03-29T11:39:16.635Z,55.70
2023-03-29T11:41:48.432Z,56.24
2023-03-29T11:44:20.968Z,56.75
2023-03-29T11:47:00.385Z,56.75
2023-03-29T11:49:45.680Z,57.75
2023-03-29T11:52:19.273Z,58.35
2023-03-29T11:55:10.532Z,57.92
2023-03-29T11:57:44.112Z,59.82
2023-03-29T12:00:13.821Z,59.72
2023-03-29T12:03:00.509Z,63.07
2023-03-29T12:06:13.695Z,62.45
2023-03-29T12:08:46.451Z,63.84
2023-03-29T12:11:22.482Z,65.80
2023-03-29T12:13:54.790Z,63.46
2023-03-29T12:16:35.121Z,65.59
2023-03-29T12:19:45.418Z,66.39
2023-03-29T12:22:14.205Z,65.75
2023-03-29T12:24:48.444Z,67.72
2023-03-29T12:27:26.235Z,66.13
2023-03-29T12:30:27.435Z,66.87
2023-03-29T12:33:19.976Z,65.86
2023-03-29T12:36:33.218Z,65.87
2023-03-29T12:39:24.404Z,66.00
2023-03-29T12:42:23.563Z,66.67
2023-03-29T12:45:40.042Z,65.86
2023-03-29T12:48:14.112Z,65.94
2023-03-29T12:50:58.467Z,66.14
2023-03-29T12:53:32.305Z,67.25
2023-03-29T12:56:03.041Z,67.67
2023-03-29T12:58:39.433Z,67.75
2023-03-29T13:01:26.951Z,67.94
2023-03-29T13:04:15.203Z,67.39
2023-03-29T13:06:47.738Z,67.54
2023-03-29T13:09:27.968Z,67.26
2023-03-29T13:12:11.043Z,67.51
2023-03-29T13:14:42.654Z,68.71
2023-03-29T13:17:24.721Z,68.24
2023-03-29T13:20:43.968Z,67.64
2023-03-29T13:23:20.236Z,68.25
2023-03-29T13:26:02.573Z,68.79
2023-03-29T13:28:43.365Z,68.79
2023-03-29T13:31:38.244Z,69.40
2023-03-29T13:34:09.254Z,69.94
2023-03-29T13:36:50.759Z,69.31
2023-03-29T13:39:29.567Z,70.47
2023-03-29T13:42:26.154Z,70.38
2023-03-29T13:44:53.263Z,70.44
2023-03-29T13:47:25.877Z,71.20
2023-03-29T13:49:57.877Z,71.75
2023-03-29T13:52:30.405Z,71.86
2023-03-29T13:54:57.378Z,72.58
2023-03-29T13:57:31.457Z,73.51
2023-03-29T14:00:11.308Z,74.58
2023-03-29T14:02:49.840Z,74.41
2023-03-29T14:05:20.373Z,74.11
2023-03-29T14:07:51.202Z,74.31
2023-03-29T14:10:37.898Z,74.00
2023-03-29T14:13:05.272Z,73.99
2023-03-29T14:15:50.649Z,72.25
2023-03-29T14:18:22.312Z,73.06
2023-03-29T14:20:55.383Z,72.11
2023-03-29T14:23:29.291Z,72.73
2023-03-29T14:26:15.650Z,73.48
2023-03-29T14:28:53.124Z,73.08
2023-03-29T14:31:26.033Z,73.35
2023-03-29T14:33:54.767Z,72.99
2023-03-29T14:36:22.743Z,73.57
2023-03-29T14:38:56.852Z,73.65
2023-03-29T14:41:28.612Z,73.15
2023-03-29T14:43:56.722Z,73.19
2023-03-29T14:46:24.256Z,73.89
2023-03-29T14:48:51.926Z,73.36
2023-03-29T14:51:19.113Z,73.30
2023-03-29T14:53:48.384Z,72.68
2023-03-29T14:56:17.425Z,73.35
2023-03-29T14:58:46.105Z,73.28
2023-03-29T15:01:18.560Z,73.66
2023-03-29T15:06:52.557Z,73.76
2023-03-29T15:09:26.717Z,72.63
2023-03-29T15:11:59.751Z,72.73
2023-03-29T15:14:30.306Z,72.51
2023-03-29T15:17:03.738Z,72.76
2023-03-29T15:19:31.759Z,72.55
2023-03-29T15:22:04.416Z,72.78
2023-03-29T15:24:33.832Z,73.18
2023-03-29T15:27:03.651Z,73.67
2023-03-29T15:29:39.580Z,73.00
2023-03-29T15:32:21.121Z,72.55
2023-03-29T15:35:02.524Z,72.79
2023-03-29T15:37:29.884Z,73.40
2023-03-29T15:39:56.653Z,73.28
2023-03-29T15:42:25.372Z,73.78
2023-03-29T15:44:56.060Z,73.73
2023-03-29T15:47:24.865Z,73.68
2023-03-29T15:49:52.387Z,73.58
2023-03-29T15:52:19.227Z,73.86
2023-03-29T15:54:45.956Z,74.29
2023-03-29T15:57:16.485Z,74.73
2023-03-29T15:59:43.788Z,74.10
2023-03-29T16:02:23.445Z,74.77
2023-03-29T16:04:51.053Z,74.52
2023-03-29T16:07:19.573Z,74.63
2023-03-29T16:09:46.891Z,74.53
2023-03-29T16:12:14.108Z,74.67
2023-03-29T16:14:43.253Z,74.65
2023-03-29T16:17:10.262Z,74.58
2023-03-29T16:19:38.270Z,74.63
2023-03-29T16:22:05.168Z,75.06
2023-03-29T16:24:33.785Z,75.12
2023-03-29T16:27:03.391Z,75.27
2023-03-29T16:29:30.480Z,76.13
2023-03-29T16:31:58.324Z,76.79
2023-03-29T16:34:26.324Z,76.80
2023-03-29T16:36:53.257Z,77.58
2023-03-29T16:39:20.028Z,77.53
2023-03-29T16:41:49.338Z,78.51
2023-03-29T16:44:20.705Z,78.51
2023-03-29T16:46:49.440Z,78.16
2023-03-29T16:49:16.227Z,78.64
2023-03-29T16:51:43.150Z,78.92
2023-03-29T16:54:10.049Z,78.80
2023-03-29T16:57:02.506Z,78.28
2023-03-29T16:59:30.495Z,78.88
2023-03-29T17:01:57.397Z,80.04
2023-03-29T17:04:25.373Z,80.16
2023-03-29T17:06:53.005Z,80.29
2023-03-29T17:09:20.574Z,80.59
2023-03-29T17:11:47.604Z,81.26
2023-03-29T17:14:18.298Z,81.23
2023-03-29T17:16:45.670Z,80.33
2023-03-29T17:19:12.510Z,80.25
2023-03-29T17:21:39.316Z,79.19
2023-03-29T17:24:06.837Z,78.55
2023-03-29T17:26:33.904Z,79.90
2023-03-29T17:29:04.841Z,78.70
2023-03-29T17:31:32.146Z,79.51
2023-03-29T17:33:59.107Z,78.55
2023-03-29T17:36:26.734Z,78.35
2023-03-29T17:38:53.809Z,77.34
2023-03-29T17:41:21.302Z,77.16
2023-03-29T17:43:48.186Z,77.11
2023-03-29T17:46:15.269Z,77.72
2023-03-29T17:48:42.281Z,78.81
2023-03-29T17:51:09.675Z,79.24
2023-03-29T17:53:37.054Z,76.71
2023-03-29T17:56:05.063Z,75.25
2023-03-29T17:58:33.465Z,73.52
2023-03-29T18:01:07.889Z,74.20
2023-03-29T18:03:35.668Z,74.05
2023-03-29T18:06:03.820Z,74.34
2023-03-29T18:08:31.789Z,74.98
2023-03-29T18:11:20.537Z,74.00
2023-03-29T18:13:48.503Z,72.32
2023-03-29T18:16:15.709Z,71.30
2023-03-29T18:18:42.827Z,71.63
2023-03-29T18:21:10.181Z,71.94
2023-03-29T18:23:39.498Z,73.05
2023-03-29T18:26:07.866Z,72.75
2023-03-29T18:28:36.847Z,74.07
2023-03-29T18:31:06.160Z,73.86
2023-03-29T18:33:34.782Z,74.28
2023-03-29T18:36:10.819Z,74.95
2023-03-29T18:38:41.472Z,74.72
2023-03-29T18:41:10.040Z,76.06
2023-03-29T18:43:38.308Z,77.34
2023-03-29T18:46:08.299Z,76.30
2023-03-29T18:48:37.556Z,76.10
2023-03-29T18:51:10.328Z,77.94
2023-03-29T18:53:39.834Z,79.00
2023-03-29T18:56:07.536Z,78.25
2023-03-29T18:58:36.649Z,79.18
2023-03-29T19:01:06.466Z,79.55
2023-03-29T19:03:35.538Z,78.77
2023-03-29T19:06:04.712Z,78.01
2023-03-29T19:08:32.933Z,79.22
2023-03-29T19:11:02.699Z,79.63
2023-03-29T19:13:30.570Z,79.42
2023-03-29T19:15:59.863Z,79.59
2023-03-29T19:18:30.879Z,79.45
2023-03-29T19:20:58.621Z,79.57
2023-03-29T19:23:27.320Z,81.91
2023-03-29T19:26:19.952Z,81.18
2023-03-29T19:28:47.736Z,81.24
2023-03-29T19:31:15.720Z,81.46
2023-03-29T19:33:43.908Z,81.41
2023-03-29T19:36:12.283Z,80.79
2023-03-29T19:38:40.327Z,80.25
2023-03-29T19:41:08.384Z,76.60
2023-03-29T19:43:36.952Z,75.98
2023-03-29T19:46:10.457Z,75.20
2023-03-29T19:48:39.762Z,76.08
2023-03-29T19:51:07.971Z,76.95
2023-03-29T19:53:38.761Z,78.75
2023-03-29T19:56:06.969Z,79.74
2023-03-29T19:58:34.314Z,80.26
2023-03-29T20:01:03.138Z,80.71
2023-03-29T20:03:30.567Z,81.78
2023-03-29T20:05:57.658Z,81.03
2023-03-29T20:08:24.578Z,81.14
2023-03-29T20:11:07.423Z,81.06
2023-03-29T20:13:39.034Z,83.21
2023-03-29T20:16:12.481Z,83.04
2023-03-29T20:18:39.828Z,82.58
2023-03-29T20:21:09.189Z,82.66
2023-03-29T20:23:36.756Z,82.66
2023-03-29T20:26:03.748Z,83.03
2023-03-29T20:28:30.821Z,83.23
2023-03-29T20:31:02.838Z,83.01
2023-03-29T20:33:30.091Z,83.56
2023-03-29T20:35:57.181Z,83.74
2023-03-29T20:38:24.824Z,83.72
2023-03-29T20:40:52.441Z,83.61
2023-03-29T20:43:19.333Z,83.16
2023-03-29T20:45:52.499Z,84.50
2023-03-29T20:48:20.879Z,84.69
2023-03-29T20:50:48.379Z,84.23
2023-03-29T20:53:15.453Z,84.93
2023-03-29T20:55:42.400Z,84.75
2023-03-29T20:58:09.927Z,83.79
2023-03-29T21:00:36.717Z,85.53
2023-03-29T21:03:03.829Z,85.86
2023-03-29T21:05:32.267Z,84.09
2023-03-29T21:08:00.207Z,84.87
2023-03-29T21:10:28.218Z,85.31
2023-03-29T21:12:55.345Z,84.90
2023-03-29T21:15:22.857Z,85.47
2023-03-29T21:17:49.781Z,84.04
2023-03-29T21:20:16.576Z,82.81
2023-03-29T21:22:43.449Z,84.03
2023-03-29T21:25:13.176Z,82.42
2023-03-29T21:27:40.267Z,82.10
2023-03-29T21:30:08.643Z,82.21
2023-03-29T21:32:35.740Z,81.42
2023-03-29T21:35:02.649Z,80.27
2023-03-29T21:37:29.543Z,81.58
2023-03-29T21:39:56.388Z,78.33
2023-03-29T21:42:23.331Z,77.78
2023-03-29T21:44:50.139Z,79.85
2023-03-29T21:47:17.028Z,78.51
2023-03-29T21:49:44.769Z,79.32
2023-03-29T21:52:11.881Z,77.72
2023-03-29T21:54:38.752Z,78.37
2023-03-29T21:57:05.564Z,78.76
2023-03-29T21:59:32.953Z,77.09
2023-03-29T22:01:59.779Z,77.53
2023-03-29T22:04:36.065Z,77.29
2023-03-29T22:07:06.246Z,78.70
2023-03-29T22:09:34.175Z,79.05
2023-03-29T22:12:02.410Z,78.77
2023-03-29T22:14:32.614Z,79.45
2023-03-29T22:19:50.742Z,78.68
2023-03-29T22:22:18.507Z,79.07
2023-03-29T22:24:45.376Z,79.20
2023-03-29T22:27:12.149Z,79.68
2023-03-29T22:29:39.309Z,80.49
2023-03-29T22:32:06.246Z,80.54
2023-03-29T22:34:33.296Z,80.41
2023-03-29T22:37:00.157Z,80.17
2023-03-29T22:39:26.960Z,80.52
2023-03-29T22:41:53.960Z,80.65
2023-03-29T22:44:22.459Z,80.45
2023-03-29T22:46:49.477Z,81.54
2023-03-29T22:49:16.439Z,82.18
2023-03-29T22:51:43.248Z,81.79
2023-03-29T22:54:11.418Z,82.04
2023-03-29T22:56:38.433Z,82.23
2023-03-29T22:59:05.391Z,82.30
2023-03-29T23:01:32.288Z,81.51
2023-03-29T23:03:59.118Z,80.73
2023-03-29T23:06:25.970Z,81.37
2023-03-29T23:08:52.899Z,83.02
2023-03-29T23:11:19.657Z,83.43
2023-03-29T23:13:46.567Z,82.54
2023-03-29T23:16:13.545Z,83.57
2023-03-29T23:18:40.341Z,83.76
2023-03-29T23:21:08.133Z,84.42
2023-03-29T23:23:35.926Z,84.94
2023-03-29T23:26:02.776Z,84.96
2023-03-29T23:28:32.401Z,84.58
2023-03-29T23:31:02.297Z,83.93
2023-03-29T23:33:31.849Z,83.53
2023-03-29T23:35:59.660Z,85.44
2023-03-29T23:38:26.657Z,86.71
2023-03-29T23:40:55.286Z,86.86
2023-03-29T23:43:22.159Z,86.56
2023-03-29T23:45:55.738Z,86.44
2023-03-29T23:48:22.839Z,87.14
2023-03-29T23:50:50.190Z,86.54
2023-03-29T23:53:17.036Z,87.70
2023-03-29T23:55:45.055Z,87.92
2023-03-29T23:58:11.902Z,88.14
